Time,TemperatureF,DewpointF,PressureIn,WindDirection,WindDirectionDegrees,WindSpeedMPH,WindSpeedGustMPH,Humidity,HourlyPrecipIn,Conditions,Clouds,dailyrainin,SolarRadiationWatts/m^2,SoftwareType,DateUTC
2017-07-22 00:00:00,70.9,64.8,29.81,West,275,6.0,13.0,81,0.39,,,0.00,0002,Weather View 32 v70,2017-07-22 05:00:00,
2017-07-22 00:05:00,71.0,65.9,29.82,SW,234,4.0,13.0,84,0.37,,,0.01,0002,Weather View 32 v70,2017-07-22 05:05:00,
2017-07-22 00:10:00,71.0,65.6,29.80,SSE,149,3.0,11.0,83,0.37,,,0.02,0002,Weather View 32 v70,2017-07-22 05:10:00,
2017-07-22 00:15:00,70.9,65.5,29.80,SW,225,7.0,11.0,83,0.34,,,0.03,0002,Weather View 32 v70,2017-07-22 05:15:00,
2017-07-22 00:20:00,70.8,65.7,29.79,SSE,152,5.0,11.0,84,0.28,,,0.03,0002,Weather View 32 v70,2017-07-22 05:20:00,
2017-07-22 00:25:00,70.7,65.3,29.81,West,268,2.0,11.0,83,0.22,,,0.04,0002,Weather View 32 v70,2017-07-22 05:25:00,
2017-07-22 00:30:00,70.4,65.0,29.82,SSW,211,2.0,11.0,83,0.16,,,0.04,0002,Weather View 32 v70,2017-07-22 05:30:00,
2017-07-22 00:35:00,70.2,64.8,29.80,South,171,5.0,11.0,83,0.13,,,0.04,0002,Weather View 32 v70,2017-07-22 05:35:00,
2017-07-22 00:40:00,70.0,64.9,29.81,West,263,3.0,11.0,84,0.10,,,0.04,0002,Weather View 32 v70,2017-07-22 05:40:00,
2017-07-22 00:45:00,70.1,65.0,29.79,ESE,116,3.0,11.0,84,0.08,,,0.04,0002,Weather View 32 v70,2017-07-22 05:45:00,
2017-07-22 00:50:00,70.1,64.7,29.80,West,272,1.0,11.0,83,0.08,,,0.05,0002,Weather View 32 v70,2017-07-22 05:50:00,
2017-07-22 00:52:00,70.2,65.1,29.80,West,276,3.0,10.0,84,0.07,,,0.05,0002,Weather View 32 v70,2017-07-22 05:52:00,
2017-07-22 00:57:00,70.2,65.1,29.80,SE,139,4.0,10.0,84,0.06,,,0.05,0002,Weather View 32 v70,2017-07-22 05:57:00,
2017-07-22 01:00:00,70.2,65.5,29.81,South,174,2.0,10.0,85,0.05,,,0.05,0002,Weather View 32 v70,2017-07-22 06:00:00,
2017-07-22 01:02:00,70.1,64.7,29.80,ENE,59,2.0,10.0,83,0.05,,,0.05,0002,Weather View 32 v70,2017-07-22 06:02:00,
2017-07-22 01:07:00,70.1,64.7,29.78,ESE,113,7.0,10.0,83,0.04,,,0.05,0002,Weather View 32 v70,2017-07-22 06:07:00,
2017-07-22 01:12:00,70.1,65.0,29.79,SSE,159,4.0,10.0,84,0.04,,,0.06,0002,Weather View 32 v70,2017-07-22 06:12:00,
2017-07-22 01:17:00,70.0,64.9,29.79,SE,142,3.0,9.0,84,0.03,,,0.06,0002,Weather View 32 v70,2017-07-22 06:17:00,
2017-07-22 01:22:00,70.0,64.9,29.79,SE,143,3.0,9.0,84,0.02,,,0.06,0002,Weather View 32 v70,2017-07-22 06:22:00,
2017-07-22 01:27:00,70.0,64.9,29.75,ENE,62,7.0,11.0,84,0.02,,,0.06,0002,Weather View 32 v70,2017-07-22 06:27:00,
2017-07-22 01:32:00,69.9,65.2,29.77,SSE,164,14.0,17.0,85,0.02,,,0.06,0002,Weather View 32 v70,2017-07-22 06:32:00,
2017-07-22 01:37:00,69.7,64.6,29.78,SW,214,2.0,18.0,84,0.02,,,0.06,0002,Weather View 32 v70,2017-07-22 06:37:00,
2017-07-22 01:42:00,69.7,65.0,29.78,SSE,149,1.0,18.0,85,0.02,,,0.06,0002,Weather View 32 v70,2017-07-22 06:42:00,
2017-07-22 01:47:00,69.6,64.9,29.76,East,82,4.0,18.0,85,0.03,,,0.07,0002,Weather View 32 v70,2017-07-22 06:47:00,
2017-07-22 01:52:00,69.7,65.0,29.75,ESE,120,6.0,18.0,85,0.02,,,0.07,0002,Weather View 32 v70,2017-07-22 06:52:00,
2017-07-22 01:57:00,69.9,64.5,29.76,SE,137,4.0,18.0,83,0.02,,,0.07,0002,Weather View 32 v70,2017-07-22 06:57:00,
2017-07-22 02:02:00,69.9,64.8,29.78,SW,224,6.0,18.0,84,0.02,,,0.07,0002,Weather View 32 v70,2017-07-22 07:02:00,
2017-07-22 02:07:00,69.8,64.7,29.80,WNW,288,5.0,18.0,84,0.03,,,0.08,0002,Weather View 32 v70,2017-07-22 07:07:00,
2017-07-22 02:12:00,69.8,64.4,29.81,WSW,254,6.0,18.0,83,0.02,,,0.08,0002,Weather View 32 v70,2017-07-22 07:12:00,
2017-07-22 02:17:00,69.7,64.3,29.80,NNW,341,3.0,18.0,83,0.02,,,0.08,0002,Weather View 32 v70,2017-07-22 07:17:00,
2017-07-22 02:22:00,69.6,64.5,29.78,NE,48,1.0,18.0,84,0.02,,,0.08,0002,Weather View 32 v70,2017-07-22 07:22:00,
2017-07-22 02:27:00,69.6,64.5,29.78,NE,43,1.0,18.0,84,0.02,,,0.08,0002,Weather View 32 v70,2017-07-22 07:27:00,
2017-07-22 02:32:00,69.6,64.9,29.77,NNE,31,2.0,18.0,85,0.02,,,0.08,0002,Weather View 32 v70,2017-07-22 07:32:00,
2017-07-22 02:37:00,69.8,65.1,29.77,WNW,289,4.0,10.0,85,0.02,,,0.08,0002,Weather View 32 v70,2017-07-22 07:37:00,
2017-07-22 02:42:00,69.9,65.2,29.80,SW,230,3.0,10.0,85,0.02,,,0.08,0002,Weather View 32 v70,2017-07-22 07:42:00,
2017-07-22 02:47:00,69.9,65.2,29.79,SSE,151,2.0,10.0,85,0.01,,,0.08,0002,Weather View 32 v70,2017-07-22 07:47:00,
2017-07-22 02:52:00,69.9,65.2,29.77,SE,140,3.0,10.0,85,0.01,,,0.08,0002,Weather View 32 v70,2017-07-22 07:52:00,
2017-07-22 02:57:00,69.9,65.2,29.79,West,265,3.0,10.0,85,0.01,,,0.08,0002,Weather View 32 v70,2017-07-22 07:57:00,
2017-07-22 03:02:00,69.9,65.2,29.80,North,349,3.0,10.0,85,0.01,,,0.08,0002,Weather View 32 v70,2017-07-22 08:02:00,
2017-07-22 03:07:00,69.8,65.1,29.80,WSW,256,3.0,10.0,85,0.00,,,0.08,0002,Weather View 32 v70,2017-07-22 08:07:00,
2017-07-22 03:12:00,69.9,65.2,29.79,South,177,4.0,9.0,85,0.00,,,0.08,0002,Weather View 32 v70,2017-07-22 08:12:00,
2017-07-22 03:17:00,69.9,64.5,29.80,SSE,158,1.0,9.0,83,0.00,,,0.08,0002,Weather View 32 v70,2017-07-22 08:17:00,
2017-07-22 03:22:00,70.0,64.9,29.78,South,169,8.0,9.0,84,0.00,,,0.08,0002,Weather View 32 v70,2017-07-22 08:22:00,
2017-07-22 03:27:00,69.9,65.2,29.79,SSE,163,6.0,10.0,85,0.00,,,0.08,0002,Weather View 32 v70,2017-07-22 08:27:00,
2017-07-22 03:32:00,70.0,64.6,29.79,SSE,158,9.0,14.0,83,0.00,,,0.08,0002,Weather View 32 v70,2017-07-22 08:32:00,
2017-07-22 03:37:00,70.0,64.9,29.79,SSE,151,4.0,14.0,84,0.00,,,0.08,0002,Weather View 32 v70,2017-07-22 08:37:00,
2017-07-22 03:42:00,70.0,65.3,29.80,NNW,332,2.0,14.0,85,0.00,,,0.08,0002,Weather View 32 v70,2017-07-22 08:42:00,
2017-07-22 03:47:00,70.1,65.0,29.79,SSE,157,6.0,14.0,84,0.01,,,0.09,0002,Weather View 32 v70,2017-07-22 08:47:00,
2017-07-22 03:52:00,70.1,65.0,29.78,SE,133,11.0,14.0,84,0.01,,,0.09,0002,Weather View 32 v70,2017-07-22 08:52:00,
2017-07-22 03:57:00,69.9,64.8,29.76,NE,51,5.0,18.0,84,0.01,,,0.09,0002,Weather View 32 v70,2017-07-22 08:57:00,
2017-07-22 04:02:00,69.8,65.1,29.79,SW,214,2.0,18.0,85,0.02,,,0.10,0002,Weather View 32 v70,2017-07-22 09:02:00,
2017-07-22 04:07:00,69.7,65.0,29.80,SSW,211,9.0,18.0,85,0.02,,,0.10,0002,Weather View 32 v70,2017-07-22 09:07:00,
2017-07-22 04:12:00,69.6,64.5,29.78,SSE,164,8.0,18.0,84,0.02,,,0.10,0002,Weather View 32 v70,2017-07-22 09:12:00,
2017-07-22 04:17:00,69.5,64.4,29.78,SE,141,8.0,18.0,84,0.02,,,0.10,0002,Weather View 32 v70,2017-07-22 09:17:00,
2017-07-22 04:22:00,69.4,64.3,29.78,South,185,9.0,18.0,84,0.03,,,0.11,0002,Weather View 32 v70,2017-07-22 09:22:00,
2017-07-22 04:27:00,69.4,64.7,29.79,SSE,166,7.0,18.0,85,0.03,,,0.11,0002,Weather View 32 v70,2017-07-22 09:27:00,
2017-07-22 04:32:00,69.4,64.3,29.74,ESE,123,10.0,18.0,84,0.03,,,0.11,0002,Weather View 32 v70,2017-07-22 09:32:00,
2017-07-22 04:37:00,69.4,64.7,29.81,SW,229,5.0,18.0,85,0.03,,,0.11,0002,Weather View 32 v70,2017-07-22 09:37:00,
2017-07-22 04:42:00,69.4,64.7,29.74,ESE,121,12.0,18.0,85,0.03,,,0.11,0002,Weather View 32 v70,2017-07-22 09:42:00,
2017-07-22 04:47:00,69.3,64.6,29.80,SSW,205,16.0,19.0,85,0.02,,,0.11,0002,Weather View 32 v70,2017-07-22 09:47:00,
2017-07-22 04:52:00,69.3,64.6,29.78,SSE,156,10.0,21.0,85,0.02,,,0.11,0002,Weather View 32 v70,2017-07-22 09:52:00,
2017-07-22 04:57:00,69.3,64.9,29.78,South,188,14.0,24.0,86,0.02,,,0.11,0002,Weather View 32 v70,2017-07-22 09:57:00,
2017-07-22 05:02:00,69.3,64.9,29.79,South,171,8.0,24.0,86,0.01,,,0.11,0002,Weather View 32 v70,2017-07-22 10:02:00,
2017-07-22 05:07:00,69.3,64.9,29.77,South,176,5.0,24.0,86,0.01,,,0.11,0002,Weather View 32 v70,2017-07-22 10:07:00,
2017-07-22 05:12:00,69.4,65.0,29.77,SSE,148,8.0,24.0,86,0.01,,,0.11,0002,Weather View 32 v70,2017-07-22 10:12:00,
2017-07-22 05:17:00,69.2,64.5,29.73,SSE,148,26.0,26.0,85,0.01,,,0.11,0002,Weather View 32 v70,2017-07-22 10:17:00,
2017-07-22 05:22:00,69.1,64.7,29.75,SW,225,4.0,28.0,86,0.00,,,0.11,0002,Weather View 32 v70,2017-07-22 10:22:00,
2017-07-22 05:27:00,69.2,64.8,29.76,NNW,342,0.0,28.0,86,0.00,,,0.11,0002,Weather View 32 v70,2017-07-22 10:27:00,
2017-07-22 05:32:00,69.2,64.8,29.73,SSE,152,21.0,28.0,86,0.00,,,0.11,0002,Weather View 32 v70,2017-07-22 10:32:00,
2017-07-22 05:37:00,69.1,64.7,29.68,SE,137,23.0,28.0,86,0.00,,,0.11,0002,Weather View 32 v70,2017-07-22 10:37:00,
2017-07-22 05:38:00,69.1,64.7,29.68,SE,134,21.0,31.0,86,0.00,,,0.11,0002,Weather View 32 v70,2017-07-22 10:38:00,
2017-07-22 05:43:00,69.1,64.7,29.73,WSW,239,16.0,31.0,86,0.00,,,0.11,0002,Weather View 32 v70,2017-07-22 10:43:00,
2017-07-22 05:48:00,69.2,65.2,29.76,West,274,5.0,31.0,87,0.00,,,0.11,0002,Weather View 32 v70,2017-07-22 10:48:00,
2017-07-22 05:53:00,69.2,64.8,29.79,NW,305,14.0,31.0,86,0.00,,,0.11,0003,Weather View 32 v70,2017-07-22 10:53:00,
2017-07-22 05:58:00,69.2,64.5,29.78,NNW,334,10.0,31.0,85,0.00,,,0.11,0003,Weather View 32 v70,2017-07-22 10:58:00,
2017-07-22 06:03:00,69.1,65.1,29.74,NNE,29,3.0,31.0,87,0.00,,,0.11,0003,Weather View 32 v70,2017-07-22 11:03:00,
2017-07-22 06:08:00,69.1,65.1,29.73,SSW,209,7.0,31.0,87,0.00,,,0.11,0004,Weather View 32 v70,2017-07-22 11:08:00,
2017-07-22 06:13:00,69.1,64.7,29.77,West,274,8.0,31.0,86,0.00,,,0.11,0004,Weather View 32 v70,2017-07-22 11:13:00,
2017-07-22 06:18:00,69.2,64.5,29.76,WNW,291,5.0,31.0,85,0.00,,,0.11,0006,Weather View 32 v70,2017-07-22 11:18:00,
2017-07-22 06:23:00,69.2,64.8,29.72,SE,131,3.0,31.0,86,0.00,,,0.11,0013,Weather View 32 v70,2017-07-22 11:23:00,
2017-07-22 06:28:00,69.3,64.9,29.73,NNE,19,3.0,31.0,86,0.00,,,0.11,0016,Weather View 32 v70,2017-07-22 11:28:00,
2017-07-22 06:33:00,69.2,64.8,29.75,NNW,339,3.0,31.0,86,0.00,,,0.11,0019,Weather View 32 v70,2017-07-22 11:33:00,
2017-07-22 06:38:00,69.3,64.9,29.75,NNW,340,2.0,31.0,86,0.00,,,0.11,0024,Weather View 32 v70,2017-07-22 11:38:00,
2017-07-22 06:43:00,69.2,64.8,29.76,NNW,341,5.0,25.0,86,0.00,,,0.11,0028,Weather View 32 v70,2017-07-22 11:43:00,
2017-07-22 06:48:00,69.2,64.8,29.77,West,278,2.0,22.0,86,0.00,,,0.11,0033,Weather View 32 v70,2017-07-22 11:48:00,
2017-07-22 06:53:00,69.2,64.8,29.77,ESE,103,2.0,22.0,86,0.00,,,0.11,0033,Weather View 32 v70,2017-07-22 11:53:00,
2017-07-22 06:58:00,69.2,64.8,29.78,WNW,289,2.0,17.0,86,0.00,,,0.11,0031,Weather View 32 v70,2017-07-22 11:58:00,
2017-07-22 07:03:00,69.3,64.9,29.77,WNW,290,2.0,15.0,86,0.00,,,0.11,0043,Weather View 32 v70,2017-07-22 12:03:00,
2017-07-22 07:08:00,69.4,65.0,29.77,NW,325,1.0,15.0,86,0.00,,,0.11,0049,Weather View 32 v70,2017-07-22 12:08:00,
2017-07-22 07:13:00,69.5,65.1,29.77,SW,224,1.0,15.0,86,0.00,,,0.11,0045,Weather View 32 v70,2017-07-22 12:13:00,
2017-07-22 07:18:00,69.5,65.1,29.77,West,281,1.0,9.0,86,0.00,,,0.11,0052,Weather View 32 v70,2017-07-22 12:18:00,
2017-07-22 07:23:00,69.5,65.1,29.78,WSW,250,2.0,8.0,86,0.00,,,0.11,0058,Weather View 32 v70,2017-07-22 12:23:00,
2017-07-22 07:28:00,69.7,65.3,29.78,SE,132,2.0,7.0,86,0.00,,,0.11,0065,Weather View 32 v70,2017-07-22 12:28:00,
2017-07-22 07:33:00,69.9,65.5,29.78,SE,131,3.0,6.0,86,0.00,,,0.11,0072,Weather View 32 v70,2017-07-22 12:33:00,
2017-07-22 07:38:00,70.2,65.8,29.78,SSE,158,2.0,6.0,86,0.00,,,0.11,0080,Weather View 32 v70,2017-07-22 12:38:00,
2017-07-22 07:43:00,70.3,65.6,29.78,East,79,2.0,5.0,85,0.00,,,0.11,0081,Weather View 32 v70,2017-07-22 12:43:00,
2017-07-22 07:48:00,70.4,66.0,29.78,NE,47,2.0,5.0,86,0.00,,,0.11,0096,Weather View 32 v70,2017-07-22 12:48:00,
2017-07-22 07:53:00,70.7,66.0,29.79,SSE,158,3.0,5.0,85,0.00,,,0.11,0112,Weather View 32 v70,2017-07-22 12:53:00,
2017-07-22 07:58:00,70.7,66.0,29.78,SE,146,3.0,5.0,85,0.00,,,0.11,0104,Weather View 32 v70,2017-07-22 12:58:00,
2017-07-22 08:03:00,70.8,66.0,29.79,SSW,200,1.0,5.0,85,0.00,,,0.11,0115,Weather View 32 v70,2017-07-22 13:03:00,
2017-07-22 08:08:00,70.8,66.4,29.80,WSW,252,2.0,5.0,86,0.00,,,0.11,0142,Weather View 32 v70,2017-07-22 13:08:00,
2017-07-22 08:13:00,70.8,66.4,29.80,SSW,194,3.0,5.0,86,0.00,,,0.11,0144,Weather View 32 v70,2017-07-22 13:13:00,
2017-07-22 08:18:00,70.8,66.4,29.81,SSW,207,3.0,7.0,86,0.00,,,0.11,0146,Weather View 32 v70,2017-07-22 13:18:00,
2017-07-22 08:23:00,71.0,66.6,29.81,SSW,199,4.0,7.0,86,0.00,,,0.11,0151,Weather View 32 v70,2017-07-22 13:23:00,
2017-07-22 08:28:00,71.0,66.2,29.81,SW,230,4.0,7.0,85,0.00,,,0.11,0169,Weather View 32 v70,2017-07-22 13:28:00,
2017-07-22 08:33:00,71.1,66.3,29.81,SSW,197,7.0,7.0,85,0.00,,,0.11,0134,Weather View 32 v70,2017-07-22 13:33:00,
2017-07-22 08:38:00,71.1,66.3,29.82,SSW,212,5.0,7.0,85,0.00,,,0.11,0176,Weather View 32 v70,2017-07-22 13:38:00,
2017-07-22 08:43:00,71.2,66.4,29.82,SSW,204,7.0,11.0,85,0.00,,,0.11,0166,Weather View 32 v70,2017-07-22 13:43:00,
2017-07-22 08:48:00,71.1,66.0,29.82,SW,234,10.0,14.0,84,0.00,,,0.11,0159,Weather View 32 v70,2017-07-22 13:48:00,
2017-07-22 08:53:00,71.2,66.4,29.81,SW,225,9.0,14.0,85,0.00,,,0.11,0125,Weather View 32 v70,2017-07-22 13:53:00,
2017-07-22 08:58:00,71.1,66.3,29.82,WSW,245,9.0,14.0,85,0.00,,,0.11,0170,Weather View 32 v70,2017-07-22 13:58:00,
2017-07-22 09:03:00,71.1,66.3,29.82,SSW,209,5.0,15.0,85,0.00,,,0.11,0160,Weather View 32 v70,2017-07-22 14:03:00,
2017-07-22 09:08:00,71.3,66.2,29.82,SSW,192,5.0,15.0,84,-0.11,,,0.11,0109,Weather View 32 v70,2017-07-22 14:08:00,
2017-07-22 09:13:00,71.4,66.3,29.82,SW,232,8.0,15.0,84,-0.11,,,0.11,0195,Weather View 32 v70,2017-07-22 14:13:00,
2017-07-22 09:18:00,71.6,66.1,29.82,WSW,253,2.0,15.0,83,0.00,,,0.11,0286,Weather View 32 v70,2017-07-22 14:18:00,
2017-07-22 09:24:00,71.9,66.8,29.82,WSW,237,5.0,15.0,84,0.00,,,0.11,0151,Weather View 32 v70,2017-07-22 14:24:00,
2017-07-22 09:29:00,72.1,67.0,29.82,SSW,195,5.0,15.0,84,0.00,,,0.11,0267,Weather View 32 v70,2017-07-22 14:29:00,
2017-07-22 09:34:00,72.3,66.5,29.82,SSW,204,7.0,15.0,82,0.00,,,0.11,0299,Weather View 32 v70,2017-07-22 14:34:00,
2017-07-22 09:39:00,72.8,67.0,29.82,SW,215,3.0,15.0,82,0.00,,,0.11,0270,Weather View 32 v70,2017-07-22 14:39:00,
2017-07-22 09:44:00,73.0,67.2,29.82,SE,141,2.0,15.0,82,0.00,,,0.11,0277,Weather View 32 v70,2017-07-22 14:44:00,
2017-07-22 09:49:00,73.6,67.7,29.82,WSW,245,3.0,15.0,82,0.00,,,0.11,0342,Weather View 32 v70,2017-07-22 14:49:00,
2017-07-22 09:54:00,73.9,67.7,29.82,SW,224,5.0,15.0,81,0.00,,,0.11,0348,Weather View 32 v70,2017-07-22 14:54:00,
2017-07-22 09:59:00,74.2,68.0,29.82,SW,227,7.0,15.0,81,0.00,,,0.11,0355,Weather View 32 v70,2017-07-22 14:59:00,
2017-07-22 10:04:00,74.3,67.7,29.82,West,259,8.0,13.0,80,0.00,,,0.11,0375,Weather View 32 v70,2017-07-22 15:04:00,
2017-07-22 10:09:00,74.6,68.0,29.82,WNW,297,4.0,13.0,80,0.00,,,0.11,0403,Weather View 32 v70,2017-07-22 15:09:00,
2017-07-22 10:14:00,74.8,67.8,29.82,SW,231,7.0,13.0,79,0.00,,,0.11,0456,Weather View 32 v70,2017-07-22 15:14:00,
2017-07-22 10:19:00,74.9,67.5,29.82,WSW,240,8.0,14.0,78,0.00,,,0.11,0258,Weather View 32 v70,2017-07-22 15:19:00,
2017-07-22 10:24:00,74.9,67.2,29.82,West,265,7.0,14.0,77,0.00,,,0.11,0300,Weather View 32 v70,2017-07-22 15:24:00,
2017-07-22 10:29:00,75.5,67.4,29.82,West,279,5.0,14.0,76,0.00,,,0.11,0399,Weather View 32 v70,2017-07-22 15:29:00,
2017-07-22 10:34:00,75.8,67.7,29.82,NW,306,7.0,14.0,76,0.00,,,0.11,0435,Weather View 32 v70,2017-07-22 15:34:00,
2017-07-22 10:39:00,76.2,67.7,29.82,WNW,298,5.0,14.0,75,0.00,,,0.11,0461,Weather View 32 v70,2017-07-22 15:39:00,
2017-07-22 10:44:00,76.4,67.9,29.82,SSW,208,4.0,14.0,75,0.00,,,0.11,0291,Weather View 32 v70,2017-07-22 15:44:00,
2017-07-22 10:49:00,76.7,68.1,29.82,West,275,6.0,14.0,75,0.00,,,0.11,0260,Weather View 32 v70,2017-07-22 15:49:00,
2017-07-22 10:54:00,76.6,67.7,29.82,SSW,202,6.0,14.0,74,0.00,,,0.11,0519,Weather View 32 v70,2017-07-22 15:54:00,
2017-07-22 10:59:00,76.5,67.6,29.82,West,281,9.0,14.0,74,0.00,,,0.11,0367,Weather View 32 v70,2017-07-22 15:59:00,
2017-07-22 11:04:00,76.7,67.4,29.82,WSW,239,2.0,14.0,73,0.00,,,0.11,0453,Weather View 32 v70,2017-07-22 16:04:00,
2017-07-22 11:09:00,77.1,68.1,29.82,WNW,288,7.0,14.0,74,0.00,,,0.11,0563,Weather View 32 v70,2017-07-22 16:09:00,
2017-07-22 11:14:00,77.2,67.4,29.82,NW,316,5.0,14.0,72,0.00,,,0.11,0517,Weather View 32 v70,2017-07-22 16:14:00,
2017-07-22 11:19:00,77.6,68.2,29.82,WNW,283,3.0,14.0,73,0.00,,,0.11,0413,Weather View 32 v70,2017-07-22 16:19:00,
2017-07-22 11:24:00,77.9,68.5,29.82,WNW,297,6.0,14.0,73,0.00,,,0.11,0300,Weather View 32 v70,2017-07-22 16:24:00,
2017-07-22 11:29:00,78.1,68.7,29.81,WSW,255,5.0,14.0,73,0.00,,,0.11,0290,Weather View 32 v70,2017-07-22 16:29:00,
2017-07-22 11:34:00,78.1,67.9,29.82,NW,308,4.0,14.0,71,0.00,,,0.11,0275,Weather View 32 v70,2017-07-22 16:34:00,
2017-07-22 11:39:00,78.5,68.7,29.82,NW,325,4.0,14.0,72,0.00,,,0.11,0475,Weather View 32 v70,2017-07-22 16:39:00,
2017-07-22 11:44:00,78.6,68.4,29.82,WNW,295,4.0,14.0,71,0.00,,,0.11,0358,Weather View 32 v70,2017-07-22 16:44:00,
2017-07-22 11:49:00,78.3,68.1,29.82,WNW,300,4.0,14.0,71,0.00,,,0.11,0219,Weather View 32 v70,2017-07-22 16:49:00,
2017-07-22 11:54:00,78.1,67.9,29.82,WNW,303,11.0,14.0,71,0.00,,,0.11,0238,Weather View 32 v70,2017-07-22 16:54:00,
2017-07-22 11:59:00,78.0,68.2,29.82,WNW,302,6.0,12.0,72,0.00,,,0.11,0237,Weather View 32 v70,2017-07-22 16:59:00,
2017-07-22 12:04:00,78.2,68.4,29.81,WNW,297,4.0,12.0,72,0.00,,,0.11,0234,Weather View 32 v70,2017-07-22 17:04:00,
2017-07-22 12:10:00,78.6,68.8,29.81,NW,315,3.0,12.0,72,0.00,,,0.11,0636,Weather View 32 v70,2017-07-22 17:10:00,
2017-07-22 12:15:00,79.0,68.8,29.81,West,274,4.0,12.0,71,0.00,,,0.11,0289,Weather View 32 v70,2017-07-22 17:15:00,
2017-07-22 12:20:00,79.2,68.9,29.81,WSW,247,3.0,12.0,71,0.00,,,0.11,0323,Weather View 32 v70,2017-07-22 17:20:00,
2017-07-22 12:25:00,79.3,68.6,29.81,WSW,254,2.0,12.0,70,0.00,,,0.11,0322,Weather View 32 v70,2017-07-22 17:25:00,
2017-07-22 12:30:00,80.0,69.7,29.81,SSW,198,1.0,12.0,71,0.00,,,0.11,0306,Weather View 32 v70,2017-07-22 17:30:00,
2017-07-22 12:35:00,80.5,69.3,29.81,WNW,287,5.0,12.0,69,0.00,,,0.11,0610,Weather View 32 v70,2017-07-22 17:35:00,
2017-07-22 12:40:00,80.6,69.4,29.81,WNW,284,4.0,12.0,69,0.00,,,0.11,0574,Weather View 32 v70,2017-07-22 17:40:00,
2017-07-22 12:45:00,80.5,69.8,29.81,East,85,2.0,12.0,70,0.00,,,0.11,0279,Weather View 32 v70,2017-07-22 17:45:00,
2017-07-22 12:50:00,80.8,69.6,29.81,WNW,293,7.0,12.0,69,0.00,,,0.11,0340,Weather View 32 v70,2017-07-22 17:50:00,
2017-07-22 12:55:00,80.7,69.1,29.81,WNW,286,3.0,11.0,68,0.00,,,0.11,0213,Weather View 32 v70,2017-07-22 17:55:00,
2017-07-22 13:00:00,80.5,69.3,29.81,SW,233,3.0,9.0,69,0.00,,,0.11,0187,Weather View 32 v70,2017-07-22 18:00:00,
2017-07-22 13:05:00,80.3,69.2,29.81,West,276,6.0,9.0,69,0.00,,,0.11,0222,Weather View 32 v70,2017-07-22 18:05:00,
2017-07-22 13:10:00,80.1,69.0,29.82,West,264,4.0,9.0,69,0.00,,,0.11,0241,Weather View 32 v70,2017-07-22 18:10:00,
2017-07-22 13:15:00,80.1,69.0,29.82,East,90,2.0,9.0,69,0.00,,,0.11,0156,Weather View 32 v70,2017-07-22 18:15:00,
2017-07-22 13:20:00,80.1,69.0,29.82,West,280,4.0,9.0,69,0.00,,,0.11,0110,Weather View 32 v70,2017-07-22 18:20:00,
2017-07-22 13:25:00,80.3,69.2,29.82,SW,236,1.0,9.0,69,0.00,,,0.11,0083,Weather View 32 v70,2017-07-22 18:25:00,
2017-07-22 13:30:00,80.0,68.4,29.82,NW,304,3.0,9.0,68,0.00,,,0.11,0088,Weather View 32 v70,2017-07-22 18:30:00,
2017-07-22 13:35:00,79.8,68.7,29.82,WNW,293,3.0,9.0,69,0.00,,,0.11,0110,Weather View 32 v70,2017-07-22 18:35:00,
2017-07-22 13:40:00,79.6,68.9,29.82,West,271,5.0,9.0,70,0.00,,,0.11,0129,Weather View 32 v70,2017-07-22 18:40:00,
2017-07-22 13:45:00,79.3,68.6,29.82,WNW,285,5.0,9.0,70,0.00,,,0.11,0113,Weather View 32 v70,2017-07-22 18:45:00,
2017-07-22 13:50:00,79.1,68.8,29.82,NW,310,4.0,9.0,71,0.00,,,0.11,0114,Weather View 32 v70,2017-07-22 18:50:00,
2017-07-22 13:55:00,78.7,68.1,29.82,NW,325,5.0,9.0,70,0.00,,,0.11,0173,Weather View 32 v70,2017-07-22 18:55:00,
2017-07-22 14:00:00,78.6,68.8,29.82,NNW,345,3.0,8.0,72,0.00,,,0.11,0225,Weather View 32 v70,2017-07-22 19:00:00,
2017-07-22 14:05:00,79.0,68.8,29.82,NW,313,5.0,7.0,71,0.00,,,0.11,0582,Weather View 32 v70,2017-07-22 19:05:00,
2017-07-22 14:10:00,79.5,69.2,29.81,NNE,18,3.0,7.0,71,0.00,,,0.11,0346,Weather View 32 v70,2017-07-22 19:10:00,
2017-07-22 14:15:00,80.8,70.1,29.81,NW,313,4.0,7.0,70,0.00,,,0.11,0588,Weather View 32 v70,2017-07-22 19:15:00,
2017-07-22 14:20:00,81.0,69.8,29.81,NNW,336,5.0,7.0,69,0.00,,,0.11,0406,Weather View 32 v70,2017-07-22 19:20:00,
2017-07-22 14:25:00,80.5,68.5,29.81,NNE,16,5.0,10.0,67,0.00,,,0.11,0200,Weather View 32 v70,2017-07-22 19:25:00,